createdAt,value
2022-08-09T00:01:00.385Z,65.80
2022-08-09T00:04:00.395Z,65.80
2022-08-09T00:06:22.889Z,65.90
2022-08-09T00:08:52.113Z,66.00
2022-08-09T00:11:25.022Z,66.10
2022-08-09T00:13:56.061Z,66.10
2022-08-09T00:16:38.408Z,66.30
2022-08-09T00:19:10.194Z,66.30
2022-08-09T00:21:38.725Z,66.50
2022-08-09T00:24:24.243Z,66.60
2022-08-09T00:26:52.829Z,66.40
2022-08-09T00:29:39.434Z,66.70
2022-08-09T00:32:12.687Z,67.60
2022-08-09T00:34:46.423Z,66.90
2022-08-09T00:37:20.434Z,67.00
2022-08-09T00:40:13.568Z,66.90
2022-08-09T00:44:15.218Z,67.00
2022-08-09T00:45:24.991Z,67.10
2022-08-09T00:47:55.480Z,67.20
2022-08-09T00:50:24.021Z,67.30
2022-08-09T00:52:53.918Z,67.40
2022-08-09T00:56:03.144Z,67.40
2022-08-09T00:58:14.813Z,67.40
2022-08-09T01:00:54.218Z,67.50
2022-08-09T01:03:33.185Z,67.30
2022-08-09T01:06:17.966Z,67.30
2022-08-09T01:08:57.383Z,67.40
2022-08-09T01:11:53.248Z,67.80
2022-08-09T01:14:31.498Z,68.00
2022-08-09T01:17:05.670Z,68.40
2022-08-09T01:20:03.008Z,68.20
2022-08-09T01:22:57.092Z,68.30
2022-08-09T01:25:48.871Z,68.20
2022-08-09T01:28:22.447Z,68.40
2022-08-09T01:30:59.117Z,68.50
2022-08-09T01:33:30.770Z,68.50
2022-08-09T01:36:05.402Z,68.70
2022-08-09T01:38:41.840Z,68.70
2022-08-09T01:41:17.006Z,68.90
2022-08-09T01:43:52.408Z,68.80
2022-08-09T01:46:25.163Z,68.90
2022-08-09T01:48:59.918Z,68.90
2022-08-09T01:51:32.136Z,69.10
2022-08-09T01:54:04.109Z,69.00
2022-08-09T01:56:36.416Z,69.30
2022-08-09T01:59:11.434Z,69.30
2022-08-09T02:01:57.906Z,69.40
2022-08-09T02:04:33.498Z,69.40
2022-08-09T02:07:18.085Z,69.70
2022-08-09T02:10:05.313Z,69.60
2022-08-09T02:12:36.346Z,70.00
2022-08-09T02:15:11.757Z,70.10
2022-08-09T02:17:59.889Z,70.30
2022-08-09T02:20:34.084Z,70.40
2022-08-09T02:23:09.094Z,70.40
2022-08-09T02:25:42.752Z,70.40
2022-08-09T02:28:20.997Z,70.50
2022-08-09T02:31:00.969Z,70.60
2022-08-09T02:33:38.443Z,70.70
2022-08-09T02:36:26.317Z,70.80
2022-08-09T02:38:59.852Z,70.80
2022-08-09T02:41:33.934Z,70.90
2022-08-09T02:44:13.683Z,71.20
2022-08-09T02:47:04.213Z,71.20
2022-08-09T02:49:41.165Z,71.40
2022-08-09T02:52:14.403Z,71.40
2022-08-09T02:54:51.114Z,71.50
2022-08-09T02:57:25.415Z,71.60
2022-08-09T03:00:21.035Z,71.60
2022-08-09T03:02:58.748Z,71.80
2022-08-09T03:05:34.174Z,71.90
2022-08-09T03:08:05.617Z,72.10
2022-08-09T03:10:35.704Z,72.10
2022-08-09T03:13:08.532Z,72.40
2022-08-09T03:16:04.874Z,72.50
2022-08-09T03:18:31.112Z,72.40
2022-08-09T03:21:01.444Z,72.70
2022-08-09T03:23:30.894Z,72.50
2022-08-09T03:26:03.545Z,72.60
2022-08-09T03:28:34.867Z,72.70
2022-08-09T03:31:06.572Z,73.00
2022-08-09T03:33:53.478Z,73.00
2022-08-09T03:36:27.643Z,73.10
2022-08-09T03:38:57.897Z,73.20
2022-08-09T03:41:44.823Z,73.20
2022-08-09T03:44:15.585Z,73.40
2022-08-09T03:46:44.982Z,73.50
2022-08-09T03:49:19.209Z,73.60
2022-08-09T03:51:58.651Z,73.60
2022-08-09T03:54:32.251Z,73.50
2022-08-09T03:57:12.402Z,73.70
2022-08-09T03:59:54.295Z,73.80
2022-08-09T04:02:26.986Z,74.00
2022-08-09T04:04:59.260Z,74.20
2022-08-09T04:07:46.991Z,74.40
2022-08-09T04:10:20.979Z,74.60
2022-08-09T04:13:00.858Z,74.70
2022-08-09T04:15:52.502Z,74.70
2022-08-09T04:18:21.169Z,75.00
2022-08-09T04:20:52.040Z,75.10
2022-08-09T04:23:23.446Z,75.00
2022-08-09T04:25:53.872Z,75.20
2022-08-09T04:28:33.959Z,75.30
2022-08-09T04:31:10.234Z,75.50
2022-08-09T04:33:52.084Z,75.50
2022-08-09T04:36:25.908Z,75.80
2022-08-09T04:38:55.424Z,76.00
2022-08-09T04:41:32.215Z,76.00
2022-08-09T04:44:05.693Z,75.90
2022-08-09T04:46:59.920Z,75.80
2022-08-09T04:49:52.515Z,75.40
2022-08-09T04:52:26.958Z,75.30
2022-08-09T04:54:56.288Z,75.50
2022-08-09T04:57:25.095Z,75.70
2022-08-09T04:59:55.844Z,76.00
2022-08-09T05:02:27.335Z,76.10
2022-08-09T05:04:56.233Z,76.00
2022-08-09T05:07:27.854Z,76.00
2022-08-09T05:10:01.708Z,76.10
2022-08-09T05:12:32.877Z,75.90
2022-08-09T05:15:11.628Z,76.00
2022-08-09T05:18:39.692Z,75.80
2022-08-09T05:20:39.981Z,75.80
2022-08-09T05:23:53.742Z,75.80
2022-08-09T05:25:58.423Z,75.90
2022-08-09T05:28:27.255Z,75.80
2022-08-09T05:30:55.334Z,75.60
2022-08-09T05:33:26.476Z,75.70
2022-08-09T05:36:02.030Z,75.70
2022-08-09T05:38:31.738Z,75.60
2022-08-09T05:40:59.909Z,75.50
2022-08-09T05:43:29.102Z,75.10
2022-08-09T05:45:59.982Z,74.90
2022-08-09T05:48:32.973Z,74.90
2022-08-09T05:51:42.585Z,74.50
2022-08-09T05:53:57.757Z,74.10
2022-08-09T05:56:28.067Z,73.50
2022-08-09T05:58:59.079Z,73.30
2022-08-09T06:01:34.259Z,73.10
2022-08-09T06:04:12.355Z,72.70
2022-08-09T06:06:46.841Z,72.40
2022-08-09T06:09:40.767Z,72.40
2022-08-09T06:12:08.633Z,72.00
2022-08-09T06:14:37.281Z,71.20
2022-08-09T06:17:09.276Z,70.90
2022-08-09T06:19:37.685Z,71.00
2022-08-09T06:22:14.858Z,70.40
2022-08-09T06:24:45.199Z,70.60
2022-08-09T06:27:15.597Z,70.20
2022-08-09T06:29:47.958Z,70.70
2022-08-09T06:32:59.854Z,70.30
2022-08-09T06:35:15.151Z,70.30
2022-08-09T06:37:52.982Z,68.90
2022-08-09T06:40:33.367Z,69.80
2022-08-09T06:43:02.243Z,69.60
2022-08-09T06:46:06.940Z,69.40
2022-08-09T06:48:30.193Z,69.30
2022-08-09T06:50:59.377Z,68.40
2022-08-09T06:53:27.552Z,68.20
2022-08-09T06:56:09.322Z,67.80
2022-08-09T07:00:49.403Z,68.80
2022-08-09T07:01:27.721Z,67.60
2022-08-09T07:04:04.380Z,67.50
2022-08-09T07:06:33.118Z,67.30
2022-08-09T07:09:02.721Z,66.90
2022-08-09T07:11:45.404Z,65.70
2022-08-09T07:14:26.509Z,64.50
2022-08-09T07:16:58.290Z,64.10
2022-08-09T07:19:27.319Z,64.20
2022-08-09T07:21:57.573Z,63.10
2022-08-09T07:24:32.835Z,64.50
2022-08-09T07:27:26.873Z,63.20
2022-08-09T07:30:00.236Z,60.60
2022-08-09T07:32:33.346Z,58.90
2022-08-09T07:35:10.254Z,57.70
2022-08-09T07:37:43.202Z,56.50
2022-08-09T07:40:17.054Z,55.60
2022-08-09T07:42:56.065Z,55.10
2022-08-09T07:45:37.990Z,56.00
2022-08-09T07:48:08.249Z,57.30
2022-08-09T07:51:09.601Z,57.30
2022-08-09T07:54:07.594Z,57.50
2022-08-09T07:56:30.934Z,56.10
2022-08-09T07:59:00.779Z,53.60
2022-08-09T08:01:32.944Z,51.10
2022-08-09T08:04:02.478Z,50.60
2022-08-09T08:06:32.017Z,50.00
2022-08-09T08:09:07.571Z,48.00
2022-08-09T08:12:24.828Z,47.60
2022-08-09T08:14:27.680Z,45.60
2022-08-09T08:17:00.762Z,44.10
2022-08-09T08:19:36.182Z,42.90
2022-08-09T08:22:04.940Z,41.10
2022-08-09T08:24:37.486Z,41.50
2022-08-09T08:27:17.244Z,42.40
2022-08-09T08:29:50.000Z,44.00
2022-08-09T08:32:28.843Z,45.10
2022-08-09T08:35:08.209Z,46.40
2022-08-09T08:37:41.373Z,43.90
2022-08-09T08:40:25.723Z,41.70
2022-08-09T08:42:58.348Z,40.50
2022-08-09T08:45:37.123Z,40.80
2022-08-09T08:48:06.867Z,41.80
2022-08-09T08:50:38.798Z,43.40
2022-08-09T08:53:12.072Z,42.60
2022-08-09T08:55:44.932Z,42.60
2022-08-09T08:58:13.069Z,42.40
2022-08-09T09:00:42.802Z,41.60
2022-08-09T09:03:25.230Z,39.90
2022-08-09T09:06:04.741Z,39.70
2022-08-09T09:08:41.028Z,39.90
2022-08-09T09:11:13.836Z,39.70
2022-08-09T09:13:57.103Z,39.00
2022-08-09T09:16:31.535Z,38.20
2022-08-09T09:22:07.695Z,37.00
2022-08-09T09:24:38.928Z,34.90
2022-08-09T09:27:21.789Z,36.00
2022-08-09T09:30:27.413Z,36.10
2022-08-09T09:33:02.823Z,37.90
2022-08-09T09:36:01.050Z,38.60
2022-08-09T09:38:42.823Z,39.10
2022-08-09T09:41:11.731Z,38.90
2022-08-09T09:43:41.192Z,36.50
2022-08-09T09:49:00.758Z,38.30
2022-08-09T09:51:38.576Z,38.80
2022-08-09T09:54:20.545Z,39.10
2022-08-09T09:56:53.334Z,37.80
2022-08-09T09:59:39.546Z,39.00
2022-08-09T10:02:07.972Z,36.40
2022-08-09T10:04:37.678Z,35.30
2022-08-09T10:07:09.984Z,37.70
2022-08-09T10:09:54.941Z,36.50
2022-08-09T10:12:29.701Z,38.60
2022-08-09T10:15:17.565Z,36.90
2022-08-09T10:18:11.672Z,35.30
2022-08-09T10:20:44.818Z,35.10
2022-08-09T15:10:04.486Z,42.60
2022-08-09T15:12:18.709Z,45.10
2022-08-09T15:14:48.274Z,44.60
2022-08-09T15:17:18.158Z,44.10
2022-08-09T15:19:59.054Z,44.00
2022-08-09T15:22:28.167Z,43.90
2022-08-09T15:24:57.592Z,44.20
2022-08-09T15:27:27.453Z,44.20
2022-08-09T15:30:56.500Z,43.50
2022-08-09T15:32:45.520Z,43.20
2022-08-09T15:35:18.093Z,41.90
2022-08-09T15:37:56.981Z,43.30
2022-08-09T15:40:37.825Z,42.10
2022-08-09T15:43:13.560Z,41.10
2022-08-09T15:45:51.653Z,41.30
2022-08-09T15:48:31.795Z,41.20
2022-08-09T15:51:01.222Z,41.00
2022-08-09T15:54:05.277Z,41.20
2022-08-09T15:56:21.703Z,41.30
2022-08-09T15:58:57.713Z,42.10
2022-08-09T16:01:25.952Z,42.40
2022-08-09T16:03:54.049Z,42.50
2022-08-09T16:06:34.699Z,43.20
2022-08-09T16:09:05.056Z,43.30
2022-08-09T16:11:35.097Z,43.20
2022-08-09T16:14:07.762Z,43.70
2022-08-09T16:16:37.746Z,43.80
2022-08-09T16:19:06.329Z,44.40
2022-08-09T16:21:36.235Z,44.60
2022-08-09T16:24:04.563Z,44.70
2022-08-09T16:26:36.403Z,44.90
2022-08-09T16:29:11.307Z,44.90
2022-08-09T16:32:18.512Z,45.70
2022-08-09T16:34:55.302Z,46.20
2022-08-09T16:37:18.618Z,45.70
2022-08-09T16:39:54.538Z,46.10
2022-08-09T16:42:36.058Z,47.20
2022-08-09T16:45:05.610Z,47.70
2022-08-09T16:48:50.209Z,46.30
2022-08-09T16:50:29.177Z,46.90
2022-08-09T16:52:58.956Z,47.40
2022-08-09T16:55:27.104Z,45.20
2022-08-09T16:58:16.450Z,45.30
2022-08-09T17:00:46.676Z,44.20
2022-08-09T17:03:21.892Z,44.40
2022-08-09T17:06:07.643Z,44.00
2022-08-09T17:09:01.616Z,44.40
2022-08-09T17:11:40.854Z,44.80
2022-08-09T17:14:25.978Z,45.30
2022-08-09T17:16:59.945Z,45.70
2022-08-09T17:20:05.008Z,46.00
2022-08-09T17:22:28.779Z,46.70
2022-08-09T17:25:03.553Z,47.30
2022-08-09T17:27:33.296Z,47.80
2022-08-09T17:30:06.822Z,48.30
2022-08-09T17:32:44.240Z,48.50
2022-08-09T17:35:14.093Z,48.70
2022-08-09T17:38:10.199Z,49.10
2022-08-09T17:40:33.265Z,49.50
2022-08-09T17:43:10.782Z,49.50
2022-08-09T17:46:02.868Z,49.60
2022-08-09T17:48:34.490Z,49.80
2022-08-09T17:51:10.140Z,50.10
2022-08-09T17:53:52.208Z,50.10
2022-08-09T17:56:22.084Z,50.40
2022-08-09T17:58:57.712Z,50.70
2022-08-09T18:02:03.282Z,51.00
2022-08-09T18:04:15.550Z,51.10
2022-08-09T18:06:54.141Z,51.40
2022-08-09T18:09:25.236Z,51.60
2022-08-09T18:12:18.139Z,51.90
2022-08-09T18:14:57.978Z,52.00
2022-08-09T18:18:03.866Z,52.30
2022-08-09T18:20:55.890Z,52.50
2022-08-09T18:23:07.041Z,52.70
2022-08-09T18:25:50.377Z,53.00
2022-08-09T18:30:39.883Z,53.30
2022-08-09T18:31:10.074Z,53.20
2022-08-09T18:33:40.003Z,53.50
2022-08-09T18:36:14.475Z,53.70
2022-08-09T18:38:56.235Z,53.80
2022-08-09T18:41:28.897Z,54.00
2022-08-09T18:44:03.293Z,54.20
2022-08-09T18:46:46.279Z,54.50
2022-08-09T18:49:21.223Z,54.70
2022-08-09T18:51:55.192Z,54.80
2022-08-09T18:54:28.551Z,55.10
2022-08-09T18:57:06.029Z,55.30
2022-08-09T18:59:37.445Z,55.50
2022-08-09T19:02:16.702Z,55.70
2022-08-09T19:04:48.035Z,55.80
2022-08-09T19:07:34.386Z,56.00
2022-08-09T19:10:14.074Z,56.10
2022-08-09T19:12:51.015Z,56.30
2022-08-09T19:15:34.511Z,56.10
2022-08-09T19:18:03.032Z,56.20
2022-08-09T19:20:38.983Z,56.30
2022-08-09T19:23:08.109Z,56.50
2022-08-09T19:26:02.069Z,56.50
2022-08-09T19:28:33.936Z,56.60
2022-08-09T19:31:07.815Z,57.00
2022-08-09T19:33:36.158Z,56.90
2022-08-09T19:36:07.175Z,57.10
2022-08-09T19:38:41.780Z,57.20
2022-08-09T19:41:11.010Z,57.30
2022-08-09T19:44:01.105Z,57.50
2022-08-09T19:46:34.280Z,57.70
2022-08-09T19:50:09.277Z,57.80
2022-08-09T19:51:55.396Z,57.80
2022-08-09T19:54:25.117Z,58.20
2022-08-09T19:56:53.549Z,58.20
2022-08-09T19:59:58.238Z,58.40
2022-08-09T20:02:17.177Z,58.70
2022-08-09T20:05:00.570Z,58.70
2022-08-09T20:07:56.722Z,58.80
2022-08-09T20:10:22.482Z,58.90
2022-08-09T20:13:04.816Z,59.10
2022-08-09T20:16:37.289Z,59.40
2022-08-09T20:18:23.156Z,59.50
2022-08-09T20:20:56.882Z,59.50
2022-08-09T20:23:38.463Z,59.80
2022-08-09T20:26:09.842Z,59.70
2022-08-09T20:28:48.005Z,60.00
2022-08-09T20:31:16.648Z,60.10
2022-08-09T20:33:45.109Z,60.40
2022-08-09T20:36:13.488Z,60.50
2022-08-09T20:39:28.338Z,60.70
2022-08-09T20:41:34.761Z,61.00
2022-08-09T20:44:09.925Z,61.30
2022-08-09T20:46:42.815Z,61.50
2022-08-09T20:49:12.707Z,61.70
2022-08-09T20:51:41.837Z,61.90
2022-08-09T20:54:16.798Z,62.00
2022-08-09T20:56:47.003Z,62.20
2022-08-09T20:59:25.120Z,62.40
2022-08-09T21:02:06.346Z,62.60
2022-08-09T21:05:57.930Z,62.90
2022-08-09T21:07:24.866Z,63.10
2022-08-09T21:10:09.539Z,63.30
2022-08-09T21:12:39.943Z,63.70
2022-08-09T21:15:12.353Z,63.70
2022-08-09T21:18:22.064Z,63.90
2022-08-09T21:20:29.887Z,64.20
2022-08-09T21:22:59.270Z,64.50
2022-08-09T21:25:55.761Z,64.60
2022-08-09T21:28:33.848Z,64.80
2022-08-09T21:31:16.355Z,65.00
2022-08-09T21:33:52.488Z,65.20
2022-08-09T21:36:23.154Z,65.30
2022-08-09T21:38:57.499Z,65.60
2022-08-09T21:42:04.049Z,65.70
2022-08-09T21:44:32.939Z,66.00
2022-08-09T21:47:05.229Z,66.10
2022-08-09T21:49:40.608Z,67.00
2022-08-09T21:52:14.650Z,67.20
2022-08-09T21:54:50.698Z,66.80
2022-08-09T21:57:39.417Z,67.00
2022-08-09T22:00:25.401Z,67.50
2022-08-09T22:02:58.716Z,67.80
2022-08-09T22:05:37.687Z,68.00
2022-08-09T22:08:14.613Z,68.40
2022-08-09T22:11:00.388Z,68.50
2022-08-09T22:13:37.244Z,68.80
2022-08-09T22:16:09.605Z,69.00
2022-08-09T22:18:54.356Z,69.50
2022-08-09T22:21:44.629Z,69.80
2022-08-09T22:24:17.181Z,70.00
2022-08-09T22:26:51.517Z,70.40
2022-08-09T22:29:28.840Z,70.70
2022-08-09T22:32:29.242Z,70.80
2022-08-09T22:34:59.082Z,71.40
2022-08-09T22:37:40.066Z,71.60
2022-08-09T22:40:10.435Z,71.90
2022-08-09T22:42:46.523Z,72.30
2022-08-09T22:48:14.402Z,72.60
2022-08-09T22:48:29.434Z,72.70
2022-08-09T22:50:53.819Z,73.00
2022-08-09T22:53:22.031Z,73.20
2022-08-09T22:56:29.357Z,73.60
2022-08-09T22:58:39.385Z,73.90
2022-08-09T23:01:09.695Z,74.60
2022-08-09T23:04:04.302Z,74.70
2022-08-09T23:06:35.142Z,75.20
2022-08-09T23:09:05.607Z,75.50
2022-08-09T23:11:33.954Z,76.00
2022-08-09T23:14:03.234Z,76.30
2022-08-09T23:16:33.226Z,76.70
2022-08-09T23:19:01.478Z,77.30
2022-08-09T23:21:33.583Z,77.50
2022-08-09T23:24:06.108Z,77.80
2022-08-09T23:26:35.511Z,78.00
2022-08-09T23:29:03.983Z,78.30
2022-08-09T23:31:33.922Z,78.80
2022-08-09T23:34:02.530Z,79.10
2022-08-09T23:36:32.165Z,79.30
2022-08-09T23:39:00.450Z,79.80
2022-08-09T23:41:29.853Z,80.00
2022-08-09T23:43:59.612Z,80.40
2022-08-09T23:46:28.349Z,80.90
2022-08-09T23:48:57.899Z,81.40
2022-08-09T23:51:26.237Z,81.90
2022-08-09T23:54:02.243Z,82.60
2022-08-09T23:56:53.520Z,83.00
2022-08-09T23:59:20.704Z,83.60
